• Join FlightAware (Why Join?)
  • Login
  • US Flag 
06:04AM EDT


 

Airport Tracker/Info


-or-


 

Live Flight TrackerFlight Track Log ✈ N513SJ ✈ 11-Feb-2014 ✈ KLAL - KBUY

Flight Track Log - Related Links

Times and Time Zones

All times are in EST time to prevent confusion due to time zone crossing. See the N513SJ flight status page for this flight to view local times or setup timezone preferences in your user account.

Time Position Orientation Groundspeed Altitude Reporting Facility
EST Latitude Longitude Course Direction KTS MPH feet Rate Location/Type
04:57PM 27.9667 -82.0333 336° Northwest 97 112 500  Level Tampa TRACON
04:58PM 28.0000 -82.0500 336° Northwest 142 163 1,900 780 Climbing Tampa TRACON
05:00PM 28.0500 -82.0667 344° North 144 166 2,800 780 Climbing Tampa TRACON
05:00PM 28.0833 -82.0667 360° North 139 160 3,400 720 Climbing Tampa TRACON
05:01PM 28.1167 -82.0667 360° North 137 158 4,000 660 Climbing Tampa TRACON
05:03PM 28.2000 -82.0500 10° North 139 160 5,400 660 Climbing Orlando TRACON
05:04PM 28.2333 -82.0167 41° Northeast 156 180 6,100 660 Climbing Orlando TRACON
05:05PM 28.2500 -81.9833 60° Northeast 157 181 6,800 780 Climbing Orlando TRACON
05:06PM 28.2833 -81.9500 41° Northeast 162 186 7,600 780 Climbing Orlando TRACON
05:07PM 28.3167 -81.9167 41° Northeast 164 189 8,400 600 Climbing Orlando TRACON
05:08PM 28.3500 -81.8833 41° Northeast 168 193 8,900 240 Climbing Orlando TRACON
05:09PM 28.3667 -81.8167 74° East 210 242 8,900 -60 Level Orlando TRACON
05:10PM 28.3833 -81.7667 69° East 208 239 8,800  Descending Orlando TRACON
05:11PM 28.4333 -81.7167 41° Northeast 196 226 8,900  Climbing Orlando TRACON
05:12PM 28.4667 -81.7000 24° Northeast 194 223 8,900  Level Orlando TRACON
05:13PM 28.5167 -81.6667 30° Northeast 199 229 8,900  Level Orlando TRACON
05:14PM 28.5667 -81.6167 41° Northeast 200 230 8,900  Level Orlando TRACON
05:15PM 28.6167 -81.6000 16° North 198 228 8,900  Level Orlando TRACON
05:16PM 28.6667 -81.5500 41° Northeast 198 228 8,900  Level Orlando TRACON
05:17PM 28.7167 -81.5167 30° Northeast 197 227 8,900 -60 Level Orlando TRACON
05:19PM 28.7847 -81.4689 32° Northeast 198 228 8,800  Descending Jacksonville Center
05:21PM 28.8697 -81.4131 30° Northeast 193 222 8,900  Climbing Jacksonville Center
05:22PM 28.9236 -81.3744 32° Northeast 201 231 8,900  Level Jacksonville Center
05:23PM 28.9756 -81.3569 16° North 193 222 8,900  Level Jacksonville Center
05:24PM 29.0381 -81.3442 10° North 196 226 8,900 120 Level Jacksonville Center
05:25PM 29.0961 -81.3289 13° North 195 224 9,300 360 Climbing Jacksonville Center
05:26PM 29.1403 -81.3400 348° North 176 203 9,800 420 Climbing Jacksonville Center
05:27PM 29.1800 -81.3492 349° North 155 178 10,200 480 Climbing Jacksonville Center
05:28PM 29.2197 -81.3603 346° North 150 173 10,800 600 Climbing Jacksonville Center
05:29PM 29.2656 -81.3572 North 145 167 11,400 540 Climbing Jacksonville Center
05:30PM 29.3033 -81.3639 351° North 145 167 11,900 480 Climbing Jacksonville Center
05:31PM 29.3450 -81.3678 355° North 145 167 12,400 600 Climbing Jacksonville Center
05:32PM 29.3806 -81.3744 351° North 140 161 13,100 660 Climbing Jacksonville Center
05:33PM 29.4203 -81.3786 355° North 136 157 13,700 480 Climbing Jacksonville Center
05:33PM 29.4203 -81.3761 90° East 140 161 13,600 360 Descending Jacksonville Center
05:34PM 29.4456 -81.3806 351° North 137 158 14,000 600 Climbing Jacksonville Center
05:34PM 29.4558 -81.3806 360° North 140 161 14,200 420 Climbing Jacksonville Center
05:35PM 29.4789 -81.3872 346° North 136 157 14,400 300 Climbing Jacksonville Center
05:35PM 29.4936 -81.3894 353° North 135 155 14,500 360 Climbing Jacksonville Center
05:36PM 29.5208 -81.3939 352° North 148 170 14,800 300 Climbing Jacksonville Center
05:36PM 29.5353 -81.3936 North 142 163 14,800 60 Level Jacksonville Center
05:37PM 29.5667 -81.4025 346° North 162 186 14,900 60 Climbing Jacksonville Center
05:37PM 29.5836 -81.4022 North 156 180 14,900  Level Jacksonville Center
05:38PM 29.6128 -81.4092 348° North 170 196 14,900  Level Jacksonville Center
05:38PM 29.6294 -81.4111 354° North 161 185 14,900  Level Jacksonville Center
05:39PM 29.6672 -81.4178 351° North 176 203 14,900  Level Jacksonville Center
05:39PM 29.6775 -81.4178 360° North 167 192 14,900  Level Jacksonville Center
05:40PM 29.7258 -81.4264 351° North 167 192 14,900 60 Level Jacksonville Center
05:41PM 29.7633 -81.4308 354° North 170 196 15,000  Climbing Jacksonville Center
05:41PM 29.7717 -81.4306 North 167 192 14,900  Descending Jacksonville Center
05:42PM 29.8136 -81.4394 350° North 170 196 15,000  Climbing Jacksonville Center
05:42PM 29.8178 -81.4394 360° North 162 186 14,900  Descending Jacksonville Center
05:43PM 29.8617 -81.4436 355° North 170 196 15,000  Climbing Jacksonville Center
05:44PM 29.9097 -81.4525 351° North 171 197 15,000  Level Jacksonville Center
05:45PM 29.9578 -81.4614 351° North 172 198 15,000  Level Jacksonville Center
05:46PM 30.0081 -81.4678 354° North 171 197 15,000  Level Jacksonville Center
05:47PM 30.0497 -81.4744 352° North 171 197 15,000  Level Jacksonville Center
05:48PM 30.1000 -81.4783 356° North 171 197 15,000  Level Jacksonville Center
05:49PM 30.1522 -81.4872 352° North 171 197 15,000  Level Jacksonville Center
05:50PM 30.1983 -81.4914 356° North 172 198 15,000  Level Jacksonville Center
05:51PM 30.2483 -81.4981 353° North 172 198 15,000  Level Jacksonville Center
05:52PM 30.2944 -81.5019 356° North 170 196 15,000  Level Jacksonville Center
05:53PM 30.3425 -81.5086 353° North 180 207 15,000  Level Jacksonville Center
05:54PM 30.3906 -81.5006 North 181 208 15,000  Level Jacksonville Center
05:55PM 30.4447 -81.4903 North 184 212 15,000 -120 Level Jacksonville Center
05:55PM 30.4675 -81.4875 North 184 212 14,900  Descending Jacksonville Center
05:56PM 30.4989 -81.4822 North 184 212 15,000  Climbing Jacksonville Center
05:56PM 30.5175 -81.4794 North 184 212 14,900 -120 Descending Jacksonville Center
05:57PM 30.5697 -81.4714 North 196 226 14,900  Level Jacksonville Center
05:58PM 30.6217 -81.4636 North 196 226 14,900  Level Jacksonville Center
05:59PM 30.6717 -81.4433 19° North 185 213 14,900  Level Jacksonville Center
06:00PM 30.7217 -81.4258 17° North 185 213 14,900  Level Jacksonville Center
06:01PM 30.7694 -81.4056 20° North 185 213 14,900  Level Jacksonville Center
06:02PM 30.8214 -81.3856 18° North 185 213 14,900  Level Jacksonville Center
06:03PM 30.8711 -81.3653 19° North 185 213 14,900  Level Jacksonville Center
06:04PM 30.9231 -81.3428 20° North 185 213 14,900  Level Jacksonville Center
06:05PM 30.9731 -81.3225 19° North 185 213 14,900  Level Jacksonville Center
06:06PM 31.0228 -81.2997 21° North 190 219 14,900  Level Jacksonville Center
06:07PM 31.0747 -81.2794 18° North 190 219 14,900  Level Jacksonville Center
06:08PM 31.1247 -81.2569 21° North 190 219 14,900  Level Jacksonville Center
06:09PM 31.1764 -81.2342 21° North 190 219 14,900  Level Jacksonville Center
06:10PM 31.2264 -81.2139 19° North 190 219 14,900  Level Jacksonville Center
06:11PM 31.2783 -81.1933 19° North 190 219 14,900  Level Jacksonville Center
06:12PM 31.3300 -81.1681 23° Northeast 198 228 14,900  Level Jacksonville Center
06:13PM 31.3778 -81.1478 20° North 198 228 15,000  Climbing Jacksonville Center
06:14PM 31.4339 -81.1247 19° North 192 221 15,000  Level Jacksonville Center
06:15PM 31.4858 -81.1044 18° North 192 221 15,000  Level Jacksonville Center
06:16PM 31.5336 -81.0839 20° North 192 221 15,000  Level Jacksonville Center
06:17PM 31.5894 -81.0586 21° North 192 221 15,000  Level Jacksonville Center
06:18PM 31.6372 -81.0406 18° North 192 221 15,000  Level Jacksonville Center
06:19PM 31.6933 -81.0150 21° North 192 221 15,000  Level Jacksonville Center
06:20PM 31.7453 -80.9944 19° North 192 221 15,000  Level Jacksonville Center
06:21PM 31.7928 -80.9714 22° Northeast 192 221 15,000  Level Jacksonville Center
06:22PM 31.8511 -80.9481 19° North 192 221 15,000  Level Jacksonville Center
06:23PM 31.8986 -80.9300 18° North 197 227 15,000  Level Jacksonville Center
06:24PM 31.9547 -80.9044 21° North 197 227 15,000  Level Jacksonville Center
06:25PM 32.0086 -80.8811 20° North 197 227 15,000  Level Jacksonville Center
06:26PM 32.0564 -80.8631 18° North 197 227 15,000  Level Jacksonville Center
06:27PM 32.1144 -80.8372 21° North 197 227 15,000  Level Jacksonville Center
06:28PM 32.1600 -80.8164 21° North 197 227 15,100  Climbing Jacksonville Center
06:29PM 32.2181 -80.7906 21° North 197 227 15,100  Level Jacksonville Center
06:30PM 32.2697 -80.7672 21° North 197 227 15,100 -60 Level Jacksonville Center
06:31PM 32.3217 -80.7439 21° North 197 227 15,000 -60 Descending Jacksonville Center
06:32PM 32.3756 -80.7206 20° North 191 220 15,000  Level Jacksonville Center
06:33PM 32.4272 -80.6972 21° North 191 220 15,000  Level Jacksonville Center
06:34PM 32.4789 -80.6714 23° Northeast 191 220 15,000  Level Jacksonville Center
06:35PM 32.5328 -80.6453 22° Northeast 191 220 15,000  Level Jacksonville Center
06:36PM 32.5844 -80.6219 21° North 191 220 15,000  Level Jacksonville Center
06:37PM 32.6364 -80.5958 23° Northeast 191 220 15,000  Level Jacksonville Center
06:38PM 32.6903 -80.5747 18° North 191 220 15,000  Level Jacksonville Center
06:39PM 32.7439 -80.5486 22° Northeast 191 220 15,000  Level Jacksonville Center
06:40PM 32.7958 -80.5300 17° North 191 220 15,000  Level Jacksonville Center
06:41PM 32.8497 -80.5064 20° North 191 220 15,000  Level Jacksonville Center
06:42PM 32.9014 -80.4878 17° North 191 220 15,000  Level Jacksonville Center
06:43PM 32.9553 -80.4664 18° North 191 220 15,000  Level Jacksonville Center
06:44PM 33.0072 -80.4453 19° North 191 220 15,000  Level Jacksonville Center
06:45PM 33.0589 -80.4239 19° North 191 220 15,000  Level Jacksonville Center
06:46PM 33.1067 -80.4078 16° North 191 220 15,100  Climbing Jacksonville Center
06:47PM 33.1625 -80.3864 18° North 191 220 15,100 -60 Level Jacksonville Center
06:48PM 33.2100 -80.3678 18° North 191 220 15,000 -60 Descending Jacksonville Center
06:49PM 33.2639 -80.3464 18° North 191 220 15,000  Level Jacksonville Center
06:50PM 33.3158 -80.3250 19° North 186 214 15,000 180 Level Jacksonville Center
06:51PM 33.3675 -80.3061 17° North 186 214 15,400 360 Climbing Jacksonville Center
06:52PM 33.4131 -80.2897 17° North 180 207 15,800 420 Climbing Jacksonville Center
06:53PM 33.4567 -80.2761 15° North 174 200 16,300 540 Climbing Jacksonville Center
06:54PM 33.4981 -80.2625 15° North 157 181 16,900 300 Climbing Jacksonville Center
06:55PM 33.5436 -80.2461 17° North 152 175 17,000  Climbing Jacksonville Center
06:56PM 33.5933 -80.2272 18° North 166 191 17,000 -60 Level Jacksonville Center
06:57PM 33.6494 -80.2106 14° North 186 214 16,900  Descending Jacksonville Center
06:58PM 33.7011 -80.1939 15° North 186 214 17,000 60 Climbing Jacksonville Center
06:59PM 33.7569 -80.1747 16° North 192 221 17,100  Climbing Jacksonville Center
07:00PM 33.8089 -80.1556 17° North 197 227 17,000  Descending Jacksonville Center
07:01PM 33.8647 -80.1364 16° North 197 227 17,100  Climbing Jacksonville Center
07:02PM 33.9186 -80.1197 14° North 202 232 17,100  Level Jacksonville Center
07:03PM 33.9703 -80.1006 17° North 202 232 17,100 60 Level Jacksonville Center
07:04PM 34.0242 -80.0811 17° North 202 232 17,300 300 Climbing Jacksonville Center
07:05PM 34.0739 -80.0647 15° North 197 227 17,700 300 Climbing Jacksonville Center
07:06PM 34.1172 -80.0481 18° North 178 205 17,900 300 Climbing Jacksonville Center
07:07PM 34.1608 -80.0292 20° North 165 190 18,400 360 Climbing Jacksonville Center
07:08PM 34.2083 -80.0100 18° North 165 190 18,700 120 Climbing Jacksonville Center
07:09PM 34.2578 -79.9908 18° North 170 196 18,700  Level Jacksonville Center
07:11PM 34.3361 -79.9631 16° North 189 217 18,700  Level Washington Center
07:12PM 34.3908 -79.9458 15° North 194 223 18,700  Level Washington Center
07:13PM 34.4481 -79.9261 16° North 199 229 18,700  Level Washington Center
07:14PM 34.5031 -79.9039 18° North 204 235 18,700  Level Washington Center
07:15PM 34.5622 -79.8842 15° North 209 241 18,700  Level Washington Center
07:16PM 34.6172 -79.8619 18° North 209 241 18,700  Level Washington Center
07:17PM 34.6719 -79.8447 15° North 209 241 18,800 120 Climbing Washington Center
07:18PM 34.7247 -79.8272 15° North 209 241 19,000  Climbing Washington Center
07:19PM 34.7794 -79.8172 North 204 235 18,900 -60 Descending Washington Center
07:20PM 34.8342 -79.8025 12° North 204 235 18,900  Level Washington Center
07:21PM 34.8908 -79.7903 10° North 204 235 18,900 -360 Level Washington Center
07:22PM 34.9500 -79.7731 13° North 204 235 18,300 -480 Descending Washington Center
07:23PM 35.0172 -79.7586 10° North 209 241 18,000 -540 Descending Washington Center
07:24PM 35.0803 -79.7467 North 222 255 17,300 -780 Descending Washington Center
07:25PM 35.1414 -79.7322 11° North 222 255 16,500 -720 Descending Washington Center
07:26PM 35.2025 -79.7150 13° North 222 255 15,900 -600 Descending Washington Center
07:28PM 35.2717 -79.6737 26° Northeast  Level FlightAware Approximate
07:35PM 35.6244 -79.5752 11° North  Level FlightAware Approximate
07:36PM 35.6749 -79.5635 11° North  Level FlightAware Approximate
07:37PM 35.7253 -79.5519 11° North  Level FlightAware Approximate
07:38PM 35.7756 -79.5395 11° North  Level FlightAware Approximate
07:39PM 35.8259 -79.5269 11° North  Level FlightAware Approximate
07:40PM 35.8762 -79.5143 11° North  Level FlightAware Approximate
07:41PM 35.9265 -79.5018 11° North  Level FlightAware Approximate
07:42PM 35.9768 -79.4892 11° North  Level FlightAware Approximate
07:43PM 36.0256 -79.4705 22° Northeast  Level FlightAware Approximate